Time;durP1;ratioP1;P1;durP2;ratioP2;P2;SDS_P1;SDS_P2;PMS_P1;PMS_P2;Temp;Humidity;BMP_temperature;BMP_pressure;BME280_temperature;BME280_humidity;BME280_pressure;Samples;Min_cycle;Max_cycle;Signal;HPM_P1;HPM_P2
2022/02/07 00:03:29;;;;;;;1.72;0.62;;;;;;;4.51;85.16;97132.51;4254805;82;21101;-91
2022/02/07 00:09:23;;;;;;;0.93;0.50;;;;;;;4.48;85.39;97144.08;4253309;81;21121;-90
2022/02/07 00:15:29;;;;;;;0.85;0.55;;;;;;;4.46;85.63;97138.28;4244088;82;21105;-91
2022/02/07 00:21:29;;;;;;;0.80;0.42;;;;;;;4.41;85.81;97123.17;4250985;81;21105;-90
2022/02/07 00:27:33;;;;;;;2.02;0.65;;;;;;;4.42;86.24;97127.42;4203660;81;21074;-91
2022/02/07 00:33:36;;;;;;;0.60;0.40;;;;;;;4.36;86.38;97126.80;4229383;82;22181;-90
2022/02/07 00:39:48;;;;;;;2.15;0.80;;;;;;;4.32;86.30;97134.89;4220649;81;21449;-90
2022/02/07 00:45:53;;;;;;;0.80;0.35;;;;;;;4.38;86.25;97130.70;4234806;82;22242;-91
2022/02/07 00:58:13;;;;;;;;;;;;;;;;;;;;;
2022/02/07 01:04:07;;;;;;;0.72;0.50;;;;;;;4.35;87.89;97127.36;4250773;81;21075;-90
2022/02/07 01:10:14;;;;;;;0.70;0.50;;;;;;;4.31;87.42;97130.64;4221850;82;21466;-90
2022/02/07 01:48:15;;;;;;;1.17;0.60;;;;;;;4.25;88.72;97092.10;4205826;82;21028;-91
2022/02/07 01:54:23;;;;;;;0.60;0.37;;;;;;;4.20;89.63;97076.99;4169618;82;20999;-91
2022/02/07 02:00:17;;;;;;;1.22;0.62;;;;;;;4.13;89.67;97074.27;4173067;82;21111;-91
2022/02/07 02:06:28;;;;;;;1.15;0.40;;;;;;;4.13;90.33;97038.27;4212724;82;21559;-90
2022/02/07 02:37:58;;;;;;;1.20;0.60;;;;;;;3.88;90.32;97059.02;4272335;81;21118;-90
2022/02/07 02:50:30;;;;;;;0.75;0.50;;;;;;;3.73;90.35;97065.50;4296508;81;21147;-90
2022/02/07 02:56:33;;;;;;;1.02;0.60;;;;;;;3.65;90.35;97058.48;4293955;81;22229;-90
2022/02/07 03:02:35;;;;;;;2.40;1.05;;;;;;;3.56;90.37;97045.83;4228923;81;21050;-91
2022/02/07 03:08:38;;;;;;;3.35;1.02;;;;;;;3.54;90.75;97026.52;4221761;81;22134;-90
2022/02/07 03:14:44;;;;;;;2.85;1.20;;;;;;;3.47;90.53;97036.70;4251829;82;21620;-89
2022/02/07 03:20:45;;;;;;;2.35;0.80;;;;;;;3.46;90.61;97031.08;4247484;81;21324;-89
2022/02/07 03:26:47;;;;;;;1.45;0.70;;;;;;;3.45;90.76;97040.92;4218279;82;22048;-90
2022/02/07 03:32:53;;;;;;;1.05;0.70;;;;;;;3.46;90.81;97037.08;4254993;81;21068;-89
2022/02/07 03:38:54;;;;;;;0.50;0.40;;;;;;;3.46;90.71;97022.20;4290737;81;162212;-91
2022/02/07 03:44:57;;;;;;;1.32;0.70;;;;;;;3.45;90.77;96997.08;4286747;81;21982;-90
2022/02/07 03:50:59;;;;;;;3.58;0.98;;;;;;;3.45;90.78;97012.52;4304165;81;21047;-89
2022/02/07 03:57:01;;;;;;;1.60;0.90;;;;;;;3.43;90.81;97013.48;4261317;81;21035;-90
2022/02/07 04:03:07;;;;;;;1.20;0.50;;;;;;;3.42;90.91;96991.06;4241990;81;21046;-90
2022/02/07 04:09:11;;;;;;;1.90;0.77;;;;;;;3.43;90.99;96992.61;4282117;81;21114;-89
2022/02/07 04:15:19;;;;;;;3.55;0.70;;;;;;;3.40;90.94;97010.19;4267795;81;21307;-90
2022/02/07 04:21:22;;;;;;;0.80;0.53;;;;;;;3.35;91.09;97030.81;4272185;81;21134;-89
2022/02/07 04:27:24;;;;;;;1.02;0.45;;;;;;;3.36;91.47;97046.66;4291922;81;21126;-89
2022/02/07 04:33:42;;;;;;;;;;;;;;;;;;;;;
2022/02/07 04:39:33;;;;;;;3.92;1.20;;;;;;;3.43;91.62;97059.47;4237944;81;21420;-90
2022/02/07 04:51:58;;;;;;;6.75;2.65;;;;;;;3.59;91.80;97059.39;4226258;81;20484;-90
2022/02/07 04:58:23;;;;;;;;;;;;;;;;;;;;;
2022/02/07 05:04:40;;;;;;;2.87;1.60;;;;;;;3.73;92.16;97067.61;4302043;80;21082;-91
2022/02/07 05:17:31;;;;;;;3.10;1.82;;;;;;;3.70;92.51;97091.37;4334229;80;21062;-92
2022/02/07 05:24:14;;;;;;;;;;;;;;;;;;;;;
2022/02/07 05:30:17;;;;;;;9.75;5.12;;;;;;;3.70;93.41;97100.05;4204882;83;21050;-91
2022/02/07 05:43:10;;;;;;;9.50;4.55;;;;;;;3.70;94.07;97132.52;4320255;80;21129;-90
2022/02/07 05:49:28;;;;;;;10.68;5.20;;;;;;;3.68;93.98;97145.67;4247465;80;21397;-92
2022/02/07 05:55:36;;;;;;;10.15;4.50;;;;;;;3.65;94.35;97152.59;4307905;81;21050;-90
2022/02/07 06:01:54;;;;;;;6.15;3.60;;;;;;;3.64;94.33;97151.61;4306417;81;21085;-93
2022/02/07 06:08:10;;;;;;;9.95;5.05;;;;;;;3.64;94.45;97163.79;4348642;80;21123;-93
2022/02/07 06:14:35;;;;;;;13.28;6.20;;;;;;;3.61;94.91;97174.01;4328191;80;21074;-92
2022/02/07 06:20:43;;;;;;;12.35;5.60;;;;;;;3.61;95.12;97181.56;4353734;80;21047;-90
2022/02/07 06:27:03;;;;;;;;;;;;;;;;;;;;;
2022/02/07 06:33:30;;;;;;;6.22;2.87;;;;;;;3.58;95.21;97221.53;4286312;81;21070;-92
2022/02/07 06:39:42;;;;;;;6.00;2.83;;;;;;;3.58;96.20;97255.36;4439872;78;21085;-90
2022/02/07 06:46:00;;;;;;;2.35;1.10;;;;;;;3.40;96.54;97339.58;4498672;78;22147;-92
2022/02/07 06:52:02;;;;;;;2.30;1.15;;;;;;;2.90;96.24;97347.59;4427975;78;21109;-91
2022/02/07 06:58:15;;;;;;;4.05;1.57;;;;;;;2.55;96.64;97377.34;4455068;78;21077;-91
2022/02/07 07:04:17;;;;;;;3.60;1.80;;;;;;;2.33;95.87;97413.23;4378676;78;21082;-92
2022/02/07 07:10:29;;;;;;;5.00;1.77;;;;;;;2.23;96.00;97422.70;4426637;78;21079;-91
2022/02/07 07:16:40;;;;;;;4.35;2.10;;;;;;;2.21;96.11;97451.97;4408324;78;21082;-91
2022/02/07 07:22:45;;;;;;;4.20;1.95;;;;;;;2.16;96.25;97470.38;4461709;78;21064;-92
2022/02/07 07:29:03;;;;;;;4.67;2.85;;;;;;;2.13;96.26;97479.20;4495416;78;21118;-92
2022/02/07 07:35:14;;;;;;;12.53;5.05;;;;;;;2.05;96.46;97488.29;4459039;78;21102;-91
2022/02/07 07:41:28;;;;;;;8.98;4.00;;;;;;;2.05;96.50;97501.20;4406908;78;21061;-92
2022/02/07 07:47:43;;;;;;;9.78;4.70;;;;;;;2.11;96.94;97517.34;4471392;78;21514;-92
2022/02/07 07:54:30;;;;;;;11.18;6.47;;;;;;;2.08;97.23;97518.61;4362531;78;21947;-90
2022/02/07 08:07:07;;;;;;;13.10;7.20;;;;;;;2.06;96.99;97525.72;4426795;78;21744;-91
2022/02/07 08:13:15;;;;;;;11.25;6.97;;;;;;;1.97;96.98;97519.75;4406456;78;21520;-90
2022/02/07 08:19:17;;;;;;;11.25;6.80;;;;;;;2.07;97.09;97538.66;4392542;78;21051;-91
2022/02/07 08:25:33;;;;;;;18.15;9.43;;;;;;;2.12;97.31;97562.65;4442181;78;21082;-91
2022/02/07 08:31:41;;;;;;;17.12;7.55;;;;;;;2.17;97.32;97580.72;4328434;80;21630;-91
2022/02/07 08:37:49;;;;;;;12.95;6.85;;;;;;;2.17;97.13;97606.92;4324763;80;21063;-93
2022/02/07 08:43:52;;;;;;;14.30;6.20;;;;;;;2.26;97.09;97610.98;4321559;80;21379;-90
2022/02/07 08:50:03;;;;;;;10.70;5.12;;;;;;;2.58;97.05;97621.10;4332186;80;21080;-89
2022/02/07 08:56:05;;;;;;;10.35;4.45;;;;;;;3.15;96.64;97633.20;4325844;80;21530;-92
2022/02/07 09:02:23;;;;;;;6.67;3.60;;;;;;;3.15;95.48;97644.80;4235655;81;21038;-91
2022/02/07 09:08:53;;;;;;;9.55;4.22;;;;;;;3.00;94.96;97643.55;4352772;80;21086;-91
2022/02/07 09:15:07;;;;;;;8.63;3.47;;;;;;;2.87;95.23;97665.89;4280430;81;21094;-90
2022/02/07 09:20:50;;;;;;;9.60;3.05;;;;;;;2.79;94.52;97668.23;4314162;81;22210;-91
2022/02/07 09:26:57;;;;;;;6.05;3.20;;;;;;;2.78;93.81;97687.52;4294258;80;21252;-91
2022/02/07 09:33:08;;;;;;;7.47;2.77;;;;;;;2.74;93.99;97721.80;4272702;81;21042;-91
2022/02/07 09:39:12;;;;;;;7.10;3.30;;;;;;;2.71;93.80;97727.33;4255833;81;21137;-90
2022/02/07 09:45:29;;;;;;;7.92;3.20;;;;;;;2.66;93.06;97751.91;4344062;81;21047;-91
2022/02/07 09:51:24;;;;;;;6.28;2.72;;;;;;;2.65;92.53;97742.25;4314553;81;21061;-90
2022/02/07 09:57:25;;;;;;;7.85;4.08;;;;;;;2.70;93.13;97754.14;4380525;80;21045;-90
2022/02/07 10:42:12;;;;;;;;;;;;;;;2.90;91.19;97816.55;4436203;78;20994;-92
2022/02/07 10:47:44;;;;;;;6.65;3.17;;;;;;;2.86;91.63;97840.02;4424117;78;20150;-91
2022/02/07 10:53:53;;;;;;;8.60;3.37;;;;;;;2.84;91.41;97844.20;4326897;80;21050;-90
2022/02/07 11:00:00;;;;;;;8.88;3.02;;;;;;;2.87;91.80;97861.06;4278841;81;21020;-91
2022/02/07 11:06:11;;;;;;;8.63;3.50;;;;;;;2.71;91.42;97877.30;4336244;80;21101;-91
2022/02/07 11:19:23;;;;;;;6.20;3.37;;;;;;;2.23;92.34;97911.96;4303928;80;21506;-90
2022/02/07 11:25:39;;;;;;;8.55;3.58;;;;;;;2.18;92.90;97925.15;4226625;81;21614;-91
2022/02/07 11:31:34;;;;;;;7.45;3.75;;;;;;;2.30;93.52;97927.77;4267361;81;21053;-92
2022/02/07 11:37:40;;;;;;;7.70;3.08;;;;;;;2.30;93.50;97941.86;4264818;81;21074;-91
2022/02/07 11:43:43;;;;;;;9.58;4.35;;;;;;;2.13;93.17;97962.42;4249911;81;22117;-90
2022/02/07 11:49:51;;;;;;;9.50;4.00;;;;;;;2.03;94.08;97963.70;4277325;81;21795;-91
2022/02/07 11:56:09;;;;;;;7.87;4.55;;;;;;;2.10;93.72;97983.36;4362229;80;21050;-92
2022/02/07 12:02:18;;;;;;;10.58;4.65;;;;;;;2.06;93.70;97995.96;4313154;80;21156;-91
2022/02/07 12:08:25;;;;;;;8.38;4.75;;;;;;;2.11;94.06;97993.81;4335169;80;21012;-91
2022/02/07 12:14:43;;;;;;;12.25;5.22;;;;;;;2.14;94.10;98005.28;4224233;82;21016;-90
2022/02/07 12:20:48;;;;;;;11.40;5.45;;;;;;;2.18;94.04;98020.20;4424238;78;21013;-90
2022/02/07 12:27:03;;;;;;;17.45;6.58;;;;;;;2.16;93.91;98034.05;4451062;78;21003;-91
2022/02/07 12:33:06;;;;;;;11.03;4.97;;;;;;;2.30;94.14;98044.48;4449299;78;21072;-91
2022/02/07 12:39:15;;;;;;;10.40;4.22;;;;;;;2.55;94.02;98049.42;4410124;78;21568;-90
2022/02/07 12:45:25;;;;;;;10.75;5.62;;;;;;;2.67;93.12;98062.09;4401116;78;21065;-91
2022/02/07 12:51:33;;;;;;;10.53;4.95;;;;;;;2.76;93.37;98076.23;4458455;78;21089;-92
2022/02/07 12:57:44;;;;;;;9.60;4.13;;;;;;;2.76;92.79;98089.19;4465861;78;21003;-91
2022/02/07 13:04:06;;;;;;;5.62;3.10;;;;;;;2.72;93.01;98096.42;4415615;78;21500;-91
2022/02/07 13:10:09;;;;;;;10.00;4.17;;;;;;;2.64;91.81;98102.77;4449824;78;21137;-91
2022/02/07 13:16:10;;;;;;;9.33;3.75;;;;;;;2.60;92.07;98115.38;4444826;78;21102;-90
2022/02/07 13:22:18;;;;;;;6.37;3.52;;;;;;;2.70;92.11;98123.55;4445292;78;21002;-91
2022/02/07 13:28:38;;;;;;;10.55;4.40;;;;;;;2.81;91.96;98138.95;4453314;78;21595;-91
2022/02/07 13:34:40;;;;;;;12.25;4.05;;;;;;;2.85;92.30;98146.57;4441956;78;21571;-90
2022/02/07 13:40:49;;;;;;;12.93;4.70;;;;;;;2.90;91.97;98163.11;4419283;78;21014;-90
2022/02/07 13:46:51;;;;;;;17.67;6.63;;;;;;;2.86;91.93;98176.55;4418099;78;20971;-90
2022/02/07 13:53:03;;;;;;;9.15;3.00;;;;;;;2.88;91.87;98201.88;4422143;78;21077;-91
2022/02/07 13:59:15;;;;;;;10.00;4.15;;;;;;;2.87;91.00;98218.66;4330851;80;22236;-88
2022/02/07 14:05:19;;;;;;;9.55;3.95;;;;;;;2.86;89.51;98223.05;4332578;80;21085;-90
2022/02/07 14:11:25;;;;;;;10.82;6.58;;;;;;;2.81;89.17;98240.86;4363367;80;21070;-91
2022/02/07 14:17:27;;;;;;;14.45;7.08;;;;;;;2.87;89.21;98245.69;4303069;80;21137;-90
2022/02/07 14:23:28;;;;;;;11.75;4.72;;;;;;;2.97;88.62;98253.89;4339884;80;21081;-90
2022/02/07 14:29:31;;;;;;;7.22;2.98;;;;;;;3.02;88.61;98263.87;4349246;80;21106;-89
2022/02/07 14:35:35;;;;;;;10.03;4.22;;;;;;;3.00;87.69;98278.89;4344092;81;21130;-91
2022/02/07 14:41:37;;;;;;;12.53;5.05;;;;;;;2.96;87.18;98288.23;4229462;81;21695;-90
2022/02/07 14:53:48;;;;;;;12.15;5.53;;;;;;;2.76;87.47;98334.34;4248539;81;21031;-89
2022/02/07 14:59:52;;;;;;;12.20;3.75;;;;;;;2.65;87.46;98340.77;4329420;80;21074;-90
2022/02/07 15:05:56;;;;;;;10.00;3.95;;;;;;;2.60;87.04;98346.98;4287288;81;21034;-91
2022/02/07 15:11:57;;;;;;;11.12;4.70;;;;;;;2.52;86.77;98362.15;4303468;80;21074;-90
2022/02/07 15:18:06;;;;;;;11.57;4.50;;;;;;;2.42;86.99;98370.72;4284710;80;21443;-91
2022/02/07 15:24:05;;;;;;;12.03;4.03;;;;;;;2.34;87.36;98383.76;4335688;80;21550;-90
2022/02/07 15:30:11;;;;;;;8.63;3.85;;;;;;;2.30;87.54;98394.98;4319979;80;21031;-91
2022/02/07 15:36:13;;;;;;;8.63;3.10;;;;;;;2.26;87.12;98406.25;4273634;81;21668;-90
2022/02/07 15:42:17;;;;;;;11.57;4.85;;;;;;;2.15;87.48;98425.34;4244409;81;22440;-90
2022/02/07 15:48:23;;;;;;;11.78;6.08;;;;;;;1.95;87.27;98449.13;4263702;81;21122;-91
2022/02/07 15:54:30;;;;;;;10.00;4.28;;;;;;;1.63;88.61;98452.02;4335921;80;21117;-91
2022/02/07 16:00:32;;;;;;;13.08;5.05;;;;;;;1.51;88.92;98476.78;4256194;81;22203;-90
2022/02/07 16:06:35;;;;;;;16.27;6.58;;;;;;;1.43;89.34;98468.19;4356590;80;21121;-91
2022/02/07 16:12:37;;;;;;;16.12;6.72;;;;;;;1.35;89.51;98473.08;4255758;81;21557;-90
2022/02/07 16:18:42;;;;;;;14.73;5.72;;;;;;;1.26;89.88;98493.37;4285415;81;21105;-90
2022/02/07 16:24:45;;;;;;;16.90;6.55;;;;;;;1.21;89.96;98507.03;4260732;81;21583;-90
2022/02/07 16:30:47;;;;;;;16.85;7.67;;;;;;;1.22;90.20;98517.27;4340815;80;21639;-91
2022/02/07 16:36:51;;;;;;;15.68;7.83;;;;;;;1.19;90.41;98527.35;4355208;80;21070;-90
2022/02/07 16:42:52;;;;;;;18.85;8.85;;;;;;;1.22;90.73;98531.52;4319269;80;21141;-90
2022/02/07 16:48:56;;;;;;;21.55;9.33;;;;;;;1.28;90.98;98540.23;4254890;81;21042;-90
2022/02/07 16:54:57;;;;;;;21.52;9.95;;;;;;;1.29;91.25;98548.54;4303550;80;21570;-90
2022/02/07 17:00:59;;;;;;;19.12;9.53;;;;;;;1.31;91.28;98550.36;4317648;80;21573;-91
2022/02/07 17:07:05;;;;;;;19.02;9.03;;;;;;;1.35;92.10;98561.52;4250847;81;21073;-91
2022/02/07 17:13:06;;;;;;;22.62;9.03;;;;;;;1.34;91.89;98569.94;4248888;81;21014;-91
2022/02/07 17:19:08;;;;;;;25.93;10.23;;;;;;;1.29;91.89;98580.90;4378284;80;21089;-91
2022/02/07 17:25:13;;;;;;;19.95;9.35;;;;;;;1.23;92.29;98597.83;4318489;80;22344;-92
2022/02/07 17:31:16;;;;;;;19.17;9.60;;;;;;;1.23;92.32;98612.66;4311420;80;21046;-90
2022/02/07 17:37:18;;;;;;;21.68;10.05;;;;;;;1.23;92.52;98611.86;4243230;81;21081;-90
2022/02/07 17:43:34;;;;;;;22.80;10.80;;;;;;;1.24;92.76;98635.80;4316872;80;21055;-91
2022/02/07 17:49:35;;;;;;;21.12;9.75;;;;;;;1.28;92.86;98642.70;4258423;81;21153;-89
2022/02/07 17:55:38;;;;;;;21.52;10.48;;;;;;;1.34;93.01;98654.34;4310498;81;21487;-92
2022/02/07 18:01:44;;;;;;;27.52;12.15;;;;;;;1.41;93.30;98657.31;4213373;79;10000468;-91
2022/02/07 18:07:48;;;;;;;26.00;10.82;;;;;;;1.44;93.18;98676.13;4303178;80;21030;-91
2022/02/07 18:13:51;;;;;;;21.95;10.88;;;;;;;1.46;93.27;98690.05;4313847;80;21062;-90
2022/02/07 18:20:06;;;;;;;;;;;;;;;;;;;;;
2022/02/07 18:26:04;;;;;;;23.70;8.68;;;;;;;1.51;93.25;98706.07;4388027;78;21065;-90
2022/02/07 18:32:10;;;;;;;18.75;8.60;;;;;;;1.48;93.51;98712.91;4414738;78;21054;-92
2022/02/07 18:38:13;;;;;;;21.63;8.43;;;;;;;1.45;93.55;98723.00;4411105;78;21052;-90
2022/02/07 18:44:18;;;;;;;22.95;9.75;;;;;;;1.44;93.86;98726.80;4439007;78;21574;-92
2022/02/07 18:50:23;;;;;;;15.57;7.00;;;;;;;1.47;93.91;98738.86;4383069;78;21061;-91
2022/02/07 18:56:28;;;;;;;28.05;11.95;;;;;;;1.48;93.83;98742.59;4420676;78;22035;-92
2022/02/07 19:02:33;;;;;;;28.75;11.68;;;;;;;1.54;93.80;98753.44;4459527;78;21058;-89
2022/02/07 19:08:35;;;;;;;25.25;9.98;;;;;;;1.57;93.84;98764.13;4434975;78;21071;-90
2022/02/07 19:14:37;;;;;;;26.17;11.75;;;;;;;1.63;93.89;98780.95;4440032;78;22162;-89
2022/02/07 19:20:42;;;;;;;22.32;9.33;;;;;;;1.67;93.83;98784.03;4312838;80;22286;-91
2022/02/07 19:26:52;;;;;;;20.72;8.90;;;;;;;1.69;93.88;98791.80;4389378;79;21058;-91
2022/02/07 19:32:51;;;;;;;21.27;9.85;;;;;;;1.70;93.88;98800.93;4238843;81;21339;-90
2022/02/07 19:38:51;;;;;;;25.55;9.60;;;;;;;1.66;93.77;98809.41;4329261;81;21073;-90
2022/02/07 19:45:17;;;;;;;27.00;11.93;;;;;;;1.61;93.73;98818.47;4351491;80;21062;-89
2022/02/07 19:51:09;;;;;;;37.20;12.43;;;;;;;1.55;93.91;98829.77;4228972;81;21110;-91
2022/02/07 19:57:11;;;;;;;31.62;12.58;;;;;;;1.51;94.05;98838.25;4235643;81;21467;-90
2022/02/07 20:03:18;;;;;;;38.55;13.15;;;;;;;1.50;94.06;98844.77;4293884;81;21116;-90
2022/02/07 20:09:23;;;;;;;34.88;13.30;;;;;;;1.50;94.05;98852.29;4329552;80;21085;-90
2022/02/07 20:15:28;;;;;;;24.07;11.05;;;;;;;1.47;94.09;98865.06;4329416;79;22262;-92
2022/02/07 20:21:30;;;;;;;31.95;11.95;;;;;;;1.48;94.11;98872.61;4319604;80;21558;-88
2022/02/07 20:27:34;;;;;;;26.65;11.00;;;;;;;1.51;94.10;98891.66;4303580;81;21076;-91
2022/02/07 20:33:42;;;;;;;27.00;10.67;;;;;;;1.46;94.04;98885.07;4319610;80;21147;-90
2022/02/07 20:39:43;;;;;;;29.50;11.28;;;;;;;1.49;94.07;98899.81;4343995;80;21026;-91
2022/02/07 20:45:51;;;;;;;31.02;10.60;;;;;;;1.47;94.16;98914.20;4294592;81;21194;-91
2022/02/07 20:51:52;;;;;;;35.17;12.58;;;;;;;1.45;94.14;98925.31;4353833;80;22070;-90
2022/02/07 20:57:54;;;;;;;33.25;11.43;;;;;;;1.39;93.98;98937.34;4267594;81;21055;-90
2022/02/07 21:04:00;;;;;;;30.32;10.00;;;;;;;1.34;94.09;98953.70;4296456;81;21087;-91
2022/02/07 21:09:59;;;;;;;29.12;9.05;;;;;;;1.35;94.20;98959.31;4283125;81;21120;-90
2022/02/07 21:16:02;;;;;;;27.45;8.90;;;;;;;1.38;94.05;98980.80;4302096;81;21042;-91
2022/02/07 21:22:09;;;;;;;22.93;7.47;;;;;;;1.40;94.03;98996.94;4310282;80;21891;-90
2022/02/07 21:28:10;;;;;;;28.87;8.13;;;;;;;1.42;93.95;99002.02;4358587;80;21093;-92
2022/02/07 21:34:14;;;;;;;22.73;7.83;;;;;;;1.40;94.05;99007.73;4316663;80;21585;-91
2022/02/07 21:40:16;;;;;;;24.82;7.95;;;;;;;1.37;94.12;99022.38;4313043;80;21085;-90
2022/02/07 21:46:19;;;;;;;26.52;8.03;;;;;;;1.36;94.28;99032.37;4316981;80;21070;-91
2022/02/07 21:52:20;;;;;;;19.62;7.83;;;;;;;1.36;94.26;99046.43;4307991;81;21158;-90
2022/02/07 21:58:24;;;;;;;19.05;7.45;;;;;;;1.34;94.36;99045.39;4329102;80;21077;-91
2022/02/07 22:04:25;;;;;;;21.77;8.18;;;;;;;1.36;94.26;99063.96;4279073;81;21120;-91
2022/02/07 22:10:27;;;;;;;30.92;8.35;;;;;;;1.36;94.31;99074.17;4320995;80;21017;-89
2022/02/07 22:16:34;;;;;;;27.35;8.75;;;;;;;1.37;94.25;99084.42;4270432;81;21087;-92
2022/02/07 22:22:32;;;;;;;22.95;7.90;;;;;;;1.35;94.03;99090.67;4331307;80;21074;-90
2022/02/07 22:28:34;;;;;;;28.20;10.80;;;;;;;1.33;94.13;99103.13;4330575;80;21078;-91
2022/02/07 22:34:46;;;;;;;35.05;7.97;;;;;;;1.31;94.10;99115.34;4334523;80;21456;-91
2022/02/07 22:40:41;;;;;;;23.32;7.30;;;;;;;1.32;94.05;99124.47;4319861;80;21066;-92
2022/02/07 22:46:43;;;;;;;23.12;7.17;;;;;;;1.34;93.91;99130.90;4326064;80;21051;-90
2022/02/07 22:52:48;;;;;;;24.87;7.42;;;;;;;1.34;93.86;99143.04;4361804;80;20975;-91
2022/02/07 22:58:50;;;;;;;24.27;7.05;;;;;;;1.36;93.58;99148.35;4281129;81;21543;-90
2022/02/07 23:04:52;;;;;;;19.12;6.87;;;;;;;1.35;93.69;99155.41;4269852;81;21026;-91
2022/02/07 23:36:14;;;;;;;24.12;7.10;;;;;;;1.32;93.43;99201.88;4263825;81;21538;-90
2022/02/07 23:42:26;;;;;;;29.00;6.10;;;;;;;1.35;93.24;99206.66;4349803;80;21630;-90
2022/02/07 23:48:33;;;;;;;29.15;6.55;;;;;;;1.35;93.22;99213.39;4350480;80;21585;-90
2022/02/07 23:54:42;;;;;;;30.75;6.60;;;;;;;1.35;93.08;99211.50;4348485;79;21035;-90
